Time;durP1;ratioP1;P1;durP2;ratioP2;P2;SDS_P1;SDS_P2;PMS_P1;PMS_P2;Temp;Humidity;BMP_temperature;BMP_pressure;BME280_temperature;BME280_humidity;BME280_pressure;Samples;Min_cycle;Max_cycle;Signal;HPM_P1;HPM_P2
2023/05/16 00:02:50;;;;;;;;;;;;;;;8.86;53.90;97253.78;6295974;28;19920;-75
2023/05/16 00:05:52;;;;;;;;;;;;;;;8.84;53.92;97246.03;6296317;28;20007;-75
2023/05/16 00:08:55;;;;;;;;;;;;;;;8.80;54.03;97254.97;6296173;28;20010;-75
2023/05/16 00:11:59;;;;;;;;;;;;;;;8.81;53.72;97256.69;6296137;28;20398;-75
2023/05/16 00:15:04;;;;;;;;;;;;;;;8.79;53.91;97260.31;6296183;28;20057;-74
2023/05/16 00:18:08;;;;;;;;;;;;;;;8.87;54.76;97253.72;6296047;28;20385;-75
2023/05/16 00:21:12;;;;;;;;;;;;;;;8.98;55.25;97254.03;6295908;28;19926;-75
2023/05/16 00:24:15;;;;;;;;;;;;;;;8.99;54.81;97260.94;6296205;28;19927;-74
2023/05/16 00:27:19;;;;;;;;;;;;;;;8.96;54.67;97266.38;6295790;28;20061;-75
2023/05/16 00:30:22;;;;;;;;;;;;;;;8.98;55.45;97259.28;6277948;28;19921;-75
2023/05/16 00:33:26;;;;;;;;;;;;;;;9.02;55.50;97261.72;6294814;28;19927;-76
2023/05/16 00:36:30;;;;;;;;;;;;;;;9.04;55.57;97265.13;6295457;28;19924;-74
2023/05/16 00:39:34;;;;;;;;;;;;;;;9.06;55.54;97265.88;6277965;28;19946;-75
2023/05/16 00:42:39;;;;;;;;;;;;;;;9.13;56.20;97267.25;6295677;28;19938;-75
2023/05/16 00:45:43;;;;;;;;;;;;;;;9.18;56.21;97271.34;6295713;28;19942;-75
2023/05/16 00:48:47;;;;;;;;;;;;;;;9.19;55.69;97272.19;6295261;28;19927;-76
2023/05/16 00:51:51;;;;;;;;;;;;;;;9.23;56.25;97271.13;6295414;28;20019;-74
2023/05/16 00:54:54;;;;;;;;;;;;;;;9.31;56.14;97281.19;6295118;28;20244;-74
2023/05/16 00:57:58;;;;;;;;;;;;;;;9.36;55.95;97277.38;6295265;28;19926;-76
2023/05/16 01:01:05;;;;;;;;;;;;;;;9.41;55.98;97270.13;6295182;28;19920;-75
2023/05/16 01:04:07;;;;;;;;;;;;;;;9.58;56.26;97277.09;6295245;28;20433;-75
2023/05/16 01:07:10;;;;;;;;;;;;;;;9.66;56.29;97277.50;6294668;28;19927;-74
2023/05/16 01:10:15;;;;;;;;;;;;;;;9.76;56.48;97277.84;6276954;28;20011;-75
2023/05/16 01:13:38;;;;;;;;;;;;;;;9.72;56.05;97281.59;6294937;28;19942;-74
2023/05/16 01:16:49;;;;;;;;;;;;;;;9.80;56.47;97283.81;6281204;28;20049;-74
2023/05/16 01:19:57;;;;;;;;;;;;;;;9.88;56.63;97286.84;6276948;28;20005;-75
2023/05/16 01:23:01;;;;;;;;;;;;;;;9.93;56.12;97295.31;6294894;28;20055;-76
2023/05/16 01:26:15;;;;;;;;;;;;;;;9.97;56.15;97301.28;6294862;28;19924;-75
2023/05/16 01:29:18;;;;;;;;;;;;;;;10.02;56.10;97299.22;6294853;28;20014;-76
2023/05/16 01:32:22;;;;;;;;;;;;;;;10.06;55.82;97295.50;6294863;28;20006;-75
2023/05/16 01:35:25;;;;;;;;;;;;;;;10.14;55.93;97295.91;6294905;28;19926;-75
2023/05/16 01:38:55;;;;;;;;;;;;;;;10.23;55.88;97310.31;6294697;28;19995;-75
2023/05/16 01:41:57;;;;;;;;;;;;;;;10.25;55.75;97311.94;6291880;28;19920;-75
2023/05/16 01:45:12;;;;;;;;;;;;;;;10.32;55.49;97313.28;6296108;28;19924;-74
2023/05/16 01:48:22;;;;;;;;;;;;;;;10.46;55.80;97324.81;6281743;28;20369;-74
2023/05/16 01:51:27;;;;;;;;;;;;;;;10.59;55.71;97315.31;6281728;28;20300;-75
2023/05/16 01:54:32;;;;;;;;;;;;;;;10.59;55.40;97310.03;6299322;28;20014;-73
2023/05/16 01:57:36;;;;;;;;;;;;;;;10.72;55.56;97310.16;6299470;28;20014;-74
2023/05/16 02:00:38;;;;;;;;;;;;;;;10.74;55.04;97314.41;6299067;28;20019;-74
2023/05/16 02:03:41;;;;;;;;;;;;;;;10.79;54.92;97301.81;6281387;28;19920;-75
2023/05/16 02:06:45;;;;;;;;;;;;;;;10.94;55.25;97317.66;6298971;28;20289;-75
2023/05/16 02:09:48;;;;;;;;;;;;;;;11.04;54.85;97313.53;6299021;28;20290;-73
2023/05/16 02:12:51;;;;;;;;;;;;;;;11.12;54.44;97311.28;6298893;28;20389;-74
2023/05/16 02:15:55;;;;;;;;;;;;;;;11.17;54.16;97314.47;6298656;28;20292;-74
2023/05/16 02:18:59;;;;;;;;;;;;;;;11.36;54.09;97313.38;6298878;28;19920;-75
2023/05/16 02:22:23;;;;;;;;;;;;;;;11.46;53.82;97317.13;6283932;28;19927;-74
2023/05/16 02:25:26;;;;;;;;;;;;;;;11.55;53.34;97311.31;6298550;28;19920;-75
2023/05/16 02:28:29;;;;;;;;;;;;;;;11.65;53.39;97312.41;6280656;28;19920;-74
2023/05/16 02:31:35;;;;;;;;;;;;;;;11.79;53.30;97313.34;6298467;28;19931;-74
2023/05/16 02:34:37;;;;;;;;;;;;;;;11.90;52.95;97310.94;6280129;28;19920;-74
2023/05/16 02:37:40;;;;;;;;;;;;;;;12.00;52.82;97312.03;6263442;28;20014;-74
2023/05/16 02:40:43;;;;;;;;;;;;;;;12.18;52.37;97309.16;6298287;28;19927;-74
2023/05/16 02:43:47;;;;;;;;;;;;;;;12.33;52.20;97308.16;6298159;28;19927;-75
2023/05/16 02:46:50;;;;;;;;;;;;;;;12.56;52.06;97314.56;6279783;28;19942;-75
2023/05/16 02:49:54;;;;;;;;;;;;;;;12.65;51.72;97315.75;6297964;28;19920;-75
2023/05/16 02:52:58;;;;;;;;;;;;;;;12.73;51.61;97316.09;6297856;28;20400;-74
2023/05/16 02:56:01;;;;;;;;;;;;;;;12.88;51.04;97308.94;6279036;28;19920;-75
2023/05/16 02:59:05;;;;;;;;;;;;;;;13.03;51.19;97314.06;6297599;28;19924;-74
2023/05/16 03:02:09;;;;;;;;;;;;;;;13.14;50.79;97315.13;6297687;28;20183;-74
2023/05/16 03:05:11;;;;;;;;;;;;;;;13.26;50.37;97311.69;6297385;28;20073;-75
2023/05/16 03:08:14;;;;;;;;;;;;;;;13.45;50.28;97309.47;6297313;28;19960;-74
2023/05/16 03:11:21;;;;;;;;;;;;;;;13.54;50.14;97307.13;6297555;28;20014;-74
2023/05/16 03:14:24;;;;;;;;;;;;;;;13.66;49.89;97316.84;6279078;28;19916;-75
2023/05/16 03:17:28;;;;;;;;;;;;;;;13.78;49.63;97318.59;6297078;28;20014;-75
2023/05/16 03:20:31;;;;;;;;;;;;;;;13.92;49.37;97321.13;6297269;28;19920;-74
2023/05/16 03:23:35;;;;;;;;;;;;;;;14.08;49.19;97320.03;6297143;28;19920;-75
2023/05/16 03:26:38;;;;;;;;;;;;;;;14.24;48.88;97320.63;6296903;28;19927;-75
2023/05/16 03:29:42;;;;;;;;;;;;;;;14.36;48.56;97316.22;6297065;28;20388;-76
2023/05/16 03:32:45;;;;;;;;;;;;;;;14.53;48.46;97317.69;6297154;28;19986;-74
2023/05/16 03:35:48;;;;;;;;;;;;;;;14.69;48.12;97323.53;6296630;28;20298;-74
2023/05/16 03:38:52;;;;;;;;;;;;;;;14.77;47.90;97315.84;6278517;28;19926;-75
2023/05/16 03:41:56;;;;;;;;;;;;;;;14.93;47.65;97314.69;6261699;28;19940;-75
2023/05/16 03:45:02;;;;;;;;;;;;;;;15.10;47.30;97314.25;6296620;28;19930;-74
2023/05/16 03:48:07;;;;;;;;;;;;;;;15.24;47.04;97314.06;6296399;28;19920;-74
2023/05/16 03:51:10;;;;;;;;;;;;;;;15.36;46.95;97322.03;6278484;28;19924;-75
2023/05/16 03:54:16;;;;;;;;;;;;;;;15.50;46.55;97313.84;6279465;28;19916;-74
2023/05/16 03:57:22;;;;;;;;;;;;;;;15.68;46.35;97317.75;6296646;28;19920;-75
2023/05/16 04:00:25;;;;;;;;;;;;;;;15.86;46.09;97325.25;6296353;28;20025;-74
2023/05/16 04:03:30;;;;;;;;;;;;;;;16.03;45.90;97327.38;6296366;28;20468;-75
2023/05/16 04:06:33;;;;;;;;;;;;;;;16.15;45.61;97326.41;6296163;28;19916;-75
2023/05/16 04:09:36;;;;;;;;;;;;;;;16.32;45.60;97326.84;6277244;28;20428;-74
2023/05/16 04:12:39;;;;;;;;;;;;;;;16.54;45.14;97331.28;6277815;28;20474;-75
2023/05/16 04:15:42;;;;;;;;;;;;;;;16.61;45.08;97327.13;6278046;28;20381;-75
2023/05/16 04:18:45;;;;;;;;;;;;;;;16.81;44.60;97328.19;6278273;28;19920;-76
2023/05/16 04:21:50;;;;;;;;;;;;;;;16.95;44.65;97325.22;6295768;28;19920;-76
2023/05/16 04:24:54;;;;;;;;;;;;;;;17.24;44.28;97322.78;6278007;28;19920;-75
2023/05/16 04:27:58;;;;;;;;;;;;;;;17.30;44.17;97318.75;6295655;28;19938;-75
2023/05/16 04:31:01;;;;;;;;;;;;;;;17.50;43.65;97315.22;6277792;28;19964;-76
2023/05/16 04:34:04;;;;;;;;;;;;;;;19.15;40.75;97313.97;6295722;28;19927;-75
2023/05/16 04:37:08;;;;;;;;;;;;;;;21.94;36.76;97319.50;6295457;28;19926;-76
2023/05/16 04:40:12;;;;;;;;;;;;;;;24.99;32.85;97328.03;6295531;28;19965;-74
2023/05/16 04:43:15;;;;;;;;;;;;;;;27.82;29.91;97325.91;6294839;28;19931;-75
2023/05/16 04:46:17;;;;;;;;;;;;;;;30.20;28.26;97328.38;6277281;28;20019;-75
2023/05/16 04:49:21;;;;;;;;;;;;;;;32.51;26.26;97323.44;6277634;28;19920;-75
2023/05/16 04:52:23;;;;;;;;;;;;;;;34.36;24.91;97324.34;6295064;28;19926;-74
2023/05/16 04:55:27;;;;;;;;;;;;;;;36.48;22.77;97328.63;6276750;28;20015;-74
2023/05/16 04:58:31;;;;;;;;;;;;;;;37.91;22.62;97324.63;6277478;28;20005;-76
2023/05/16 05:01:34;;;;;;;;;;;;;;;39.24;21.14;97325.28;6277170;28;20017;-76
2023/05/16 05:04:38;;;;;;;;;;;;;;;40.73;18.98;97322.38;6276732;28;19920;-74
2023/05/16 05:07:42;;;;;;;;;;;;;;;42.17;19.09;97323.03;6276787;28;20293;-74
2023/05/16 05:10:45;;;;;;;;;;;;;;;43.38;17.53;97319.03;6295352;28;20360;-75
2023/05/16 05:13:48;;;;;;;;;;;;;;;44.11;16.19;97314.78;6295060;28;20026;-75
2023/05/16 05:16:50;;;;;;;;;;;;;;;44.91;16.28;97315.41;6277190;28;19927;-76
2023/05/16 05:19:52;;;;;;;;;;;;;;;45.30;15.81;97308.44;6294861;28;20007;-75
2023/05/16 05:22:55;;;;;;;;;;;;;;;45.77;15.78;97317.28;6294921;28;19920;-74
2023/05/16 05:25:58;;;;;;;;;;;;;;;46.68;13.63;97315.16;6277175;28;19920;-74
2023/05/16 05:29:01;;;;;;;;;;;;;;;47.06;12.44;97321.00;6294620;28;20393;-74
2023/05/16 05:32:04;;;;;;;;;;;;;;;47.59;12.77;97311.50;6277229;28;19920;-74
2023/05/16 05:35:07;;;;;;;;;;;;;;;47.59;10.67;97300.34;6294683;28;19920;-74
2023/05/16 05:38:10;;;;;;;;;;;;;;;47.43;9.13;97313.16;6294291;28;20015;-75
2023/05/16 05:41:14;;;;;;;;;;;;;;;47.45;9.36;97305.28;6294632;28;19920;-74
2023/05/16 05:44:16;;;;;;;;;;;;;;;47.66;9.83;97305.41;6294491;28;20343;-73
2023/05/16 05:47:20;;;;;;;;;;;;;;;48.16;9.91;97313.22;6294472;28;20026;-75
2023/05/16 05:50:22;;;;;;;;;;;;;;;49.11;10.44;97311.06;6294556;28;19920;-74
2023/05/16 05:53:26;;;;;;;;;;;;;;;50.14;9.52;97311.31;6276863;28;19921;-74
2023/05/16 05:56:29;;;;;;;;;;;;;;;51.09;8.33;97316.81;6294469;28;20067;-74
2023/05/16 05:59:31;;;;;;;;;;;;;;;51.56;6.56;97317.03;6294246;28;19920;-74
2023/05/16 06:02:34;;;;;;;;;;;;;;;51.71;9.10;97314.63;6294270;28;19920;-74
2023/05/16 06:05:37;;;;;;;;;;;;;;;50.37;9.04;97319.25;6294089;28;19986;-75
2023/05/16 06:08:40;;;;;;;;;;;;;;;49.73;9.80;97313.03;6294167;28;19920;-74
2023/05/16 06:11:44;;;;;;;;;;;;;;;49.97;7.70;97317.06;6276454;28;20026;-75
2023/05/16 06:14:47;;;;;;;;;;;;;;;50.83;7.66;97320.78;6275695;28;20018;-75
2023/05/16 06:17:50;;;;;;;;;;;;;;;51.07;8.25;97319.94;6275564;28;19927;-75
2023/05/16 06:20:53;;;;;;;;;;;;;;;50.61;8.43;97308.06;6294066;28;20011;-74
2023/05/16 06:23:55;;;;;;;;;;;;;;;50.53;7.50;97295.00;6294116;28;20402;-74
2023/05/16 06:27:02;;;;;;;;;;;;;;;50.46;8.74;97297.59;6293822;28;20018;-74
2023/05/16 06:30:05;;;;;;;;;;;;;;;50.61;6.72;97302.47;6294243;28;19920;-75
2023/05/16 06:33:11;;;;;;;;;;;;;;;50.89;7.46;97290.56;6296996;28;19921;-74
2023/05/16 06:36:13;;;;;;;;;;;;;;;50.85;7.76;97289.59;6298257;28;20363;-75
2023/05/16 06:39:19;;;;;;;;;;;;;;;51.16;7.42;97301.03;6298184;28;19990;-74
2023/05/16 06:42:22;;;;;;;;;;;;;;;51.73;6.68;97298.28;6298296;28;19921;-75
2023/05/16 06:45:27;;;;;;;;;;;;;;;52.38;6.56;97298.81;6298448;28;19967;-75
2023/05/16 06:48:30;;;;;;;;;;;;;;;53.11;6.46;97291.72;6263591;28;19926;-74
2023/05/16 06:51:35;;;;;;;;;;;;;;;53.00;5.26;97290.63;6276114;28;19920;-75
2023/05/16 06:54:38;;;;;;;;;;;;;;;53.68;5.84;97291.28;6297729;28;20439;-74
2023/05/16 06:57:42;;;;;;;;;;;;;;;53.75;4.56;97297.84;6297518;28;20411;-74
2023/05/16 07:00:48;;;;;;;;;;;;;;;53.46;6.20;97288.03;6297565;28;19927;-74
2023/05/16 07:03:53;;;;;;;;;;;;;;;53.97;5.19;97289.81;6280411;28;19966;-74
2023/05/16 07:06:56;;;;;;;;;;;;;;;54.63;5.89;97288.53;6297761;28;19927;-75
2023/05/16 07:10:02;;;;;;;;;;;;;;;54.64;4.34;97287.38;6297538;28;19920;-74
2023/05/16 07:13:05;;;;;;;;;;;;;;;54.79;4.70;97281.94;6297578;28;19920;-74
2023/05/16 07:16:09;;;;;;;;;;;;;;;54.12;5.05;97272.00;6297406;28;20074;-75
2023/05/16 07:19:12;;;;;;;;;;;;;;;53.16;5.15;97268.09;6297583;28;19921;-74
2023/05/16 07:22:19;;;;;;;;;;;;;;;53.88;4.86;97266.72;6297749;28;19997;-74
2023/05/16 07:25:21;;;;;;;;;;;;;;;53.27;5.56;97266.31;6296388;28;20305;-73
2023/05/16 07:28:28;;;;;;;;;;;;;;;51.96;5.44;97257.19;6296852;28;19920;-74
2023/05/16 07:31:37;;;;;;;;;;;;;;;52.30;4.97;97246.44;6297137;28;20013;-74
2023/05/16 07:34:44;;;;;;;;;;;;;;;52.39;4.65;97249.06;6297185;28;19916;-73
2023/05/16 07:37:48;;;;;;;;;;;;;;;52.68;4.82;97257.00;6297080;28;19928;-74
2023/05/16 07:40:55;;;;;;;;;;;;;;;53.70;4.87;97253.13;6297129;28;19920;-73
2023/05/16 07:44:03;;;;;;;;;;;;;;;54.27;4.73;97256.97;6296729;28;19938;-74
2023/05/16 07:47:10;;;;;;;;;;;;;;;54.72;4.51;97257.28;6279246;28;19920;-74
2023/05/16 07:50:14;;;;;;;;;;;;;;;55.31;3.98;97263.34;6295910;28;19950;-74
2023/05/16 07:53:18;;;;;;;;;;;;;;;55.12;4.16;97259.47;6296580;28;19970;-74
2023/05/16 07:56:23;;;;;;;;;;;;;;;54.42;3.65;97245.97;6296265;28;19920;-74
2023/05/16 07:59:30;;;;;;;;;;;;;;;53.90;4.36;97250.28;6296366;28;19928;-75
2023/05/16 08:02:33;;;;;;;;;;;;;;;53.25;4.40;97245.38;6295399;28;19924;-74
2023/05/16 08:05:38;;;;;;;;;;;;;;;53.39;4.61;97238.06;6296063;28;19920;-74
2023/05/16 08:08:42;;;;;;;;;;;;;;;54.10;3.87;97246.22;6296122;28;19931;-73
2023/05/16 08:11:46;;;;;;;;;;;;;;;53.68;4.61;97251.88;6295266;28;19927;-74
2023/05/16 08:14:49;;;;;;;;;;;;;;;53.62;4.33;97228.84;6294439;28;20301;-74
2023/05/16 08:17:57;;;;;;;;;;;;;;;53.28;4.40;97237.00;6295740;28;19927;-75
2023/05/16 08:21:01;;;;;;;;;;;;;;;52.80;4.60;97219.50;6296022;28;19924;-74
2023/05/16 08:24:06;;;;;;;;;;;;;;;53.09;4.64;97228.59;6295767;28;19920;-74
2023/05/16 08:27:12;;;;;;;;;;;;;;;53.24;4.88;97222.06;6294329;28;19920;-74
2023/05/16 08:30:44;;;;;;;;;;;;;;;52.53;4.72;97216.50;6281588;28;19926;-74
2023/05/16 08:33:47;;;;;;;;;;;;;;;52.12;4.38;97208.66;6294799;28;19927;-74
2023/05/16 08:36:50;;;;;;;;;;;;;;;50.62;4.85;97208.03;6295338;28;19989;-75
2023/05/16 08:39:55;;;;;;;;;;;;;;;50.65;4.81;97197.00;6295570;28;19920;-74
2023/05/16 08:42:56;;;;;;;;;;;;;;;51.86;4.33;97201.59;6294772;28;19942;-75
2023/05/16 08:45:59;;;;;;;;;;;;;;;52.80;4.44;97199.84;6294688;28;19927;-74
2023/05/16 08:49:06;;;;;;;;;;;;;;;53.22;3.89;97207.56;6295372;28;20392;-74
2023/05/16 08:52:11;;;;;;;;;;;;;;;52.12;4.25;97189.03;6294852;28;19926;-75
2023/05/16 08:55:15;;;;;;;;;;;;;;;49.03;5.29;97187.03;6293564;28;19926;-74
2023/05/16 08:58:21;;;;;;;;;;;;;;;48.23;5.64;97184.31;6294939;28;20042;-75
2023/05/16 09:01:25;;;;;;;;;;;;;;;47.68;5.31;97170.09;6294962;28;19928;-75
2023/05/16 09:04:30;;;;;;;;;;;;;;;47.23;5.59;97173.31;6294405;28;20459;-75
2023/05/16 09:07:39;;;;;;;;;;;;;;;44.21;6.63;97171.47;6295143;28;19927;-75
2023/05/16 09:10:41;;;;;;;;;;;;;;;40.14;8.54;97151.13;6276684;28;19920;-74
2023/05/16 09:13:47;;;;;;;;;;;;;;;37.75;9.67;97147.94;6295151;28;19978;-75
2023/05/16 09:17:14;;;;;;;;;;;;;;;36.17;10.62;97132.88;6294690;28;19924;-75
2023/05/16 09:20:16;;;;;;;;;;;;;;;37.96;9.27;97135.16;6293913;28;19920;-74
2023/05/16 09:23:23;;;;;;;;;;;;;;;41.16;7.91;97137.75;6294570;28;19916;-74
2023/05/16 09:26:26;;;;;;;;;;;;;;;43.70;6.58;97143.63;6294309;28;20397;-74
2023/05/16 09:29:28;;;;;;;;;;;;;;;45.78;6.00;97154.06;6294230;28;19920;-74
2023/05/16 09:32:33;;;;;;;;;;;;;;;47.07;5.83;97161.03;6294424;28;19921;-74
2023/05/16 09:35:39;;;;;;;;;;;;;;;46.16;5.95;97151.59;6294235;28;20352;-74
2023/05/16 09:38:54;;;;;;;;;;;;;;;44.54;6.70;97148.00;6294752;28;20088;-75
2023/05/16 09:41:58;;;;;;;;;;;;;;;45.45;6.23;97146.06;6294744;28;19924;-74
2023/05/16 09:45:12;;;;;;;;;;;;;;;45.90;6.04;97145.97;6294918;28;19974;-74
2023/05/16 09:48:19;;;;;;;;;;;;;;;46.52;5.82;97145.78;6294655;28;19924;-74
2023/05/16 09:51:24;;;;;;;;;;;;;;;47.06;5.60;97137.13;6277111;28;19920;-74
2023/05/16 09:54:31;;;;;;;;;;;;;;;47.20;5.76;97137.75;6293805;28;19927;-74
2023/05/16 09:57:36;;;;;;;;;;;;;;;45.70;6.16;97133.47;6294283;28;20412;-75
2023/05/16 10:00:43;;;;;;;;;;;;;;;44.21;6.95;97129.88;6276763;28;19924;-74
2023/05/16 10:03:44;;;;;;;;;;;;;;;44.48;6.65;97129.03;6294359;28;20413;-74
2023/05/16 10:06:56;;;;;;;;;;;;;;;45.35;6.31;97121.31;6296952;28;19921;-75
2023/05/16 10:09:59;;;;;;;;;;;;;;;46.33;5.74;97121.06;6297885;28;19920;-75
2023/05/16 10:13:02;;;;;;;;;;;;;;;45.83;5.96;97112.22;6298217;28;19920;-75
2023/05/16 10:16:07;;;;;;;;;;;;;;;42.48;7.00;97106.94;6298924;28;19920;-75
2023/05/16 10:19:08;;;;;;;;;;;;;;;39.73;8.25;97098.91;6298199;28;20311;-74
2023/05/16 10:22:12;;;;;;;;;;;;;;;40.18;8.16;97108.06;6299552;28;19921;-75
2023/05/16 10:25:24;;;;;;;;;;;;;;;41.66;7.46;97102.47;6298360;28;19927;-74
2023/05/16 10:28:41;;;;;;;;;;;;;;;41.90;7.44;97092.25;6283042;28;19920;-74
2023/05/16 10:31:46;;;;;;;;;;;;;;;41.29;7.63;97098.44;6298336;28;19920;-74
2023/05/16 10:34:50;;;;;;;;;;;;;;;39.22;8.37;97095.44;6298729;28;19920;-75
2023/05/16 10:37:56;;;;;;;;;;;;;;;37.05;9.37;97086.03;6298443;28;19920;-74
2023/05/16 10:41:00;;;;;;;;;;;;;;;36.81;9.96;97089.13;6297872;28;19928;-75
2023/05/16 10:44:17;;;;;;;;;;;;;;;36.51;10.26;97081.44;6298565;28;20011;-75
2023/05/16 10:47:20;;;;;;;;;;;;;;;35.34;10.74;97074.59;6297843;28;20310;-75
2023/05/16 10:50:53;;;;;;;;;;;;;;;34.48;11.33;97069.38;6298102;28;19920;-75
2023/05/16 10:53:57;;;;;;;;;;;;;;;35.10;10.63;97072.06;6280197;28;19921;-75
2023/05/16 10:57:02;;;;;;;;;;;;;;;36.53;10.23;97071.06;6298408;28;19927;-75
2023/05/16 11:00:09;;;;;;;;;;;;;;;37.99;9.09;97061.53;6297798;28;20346;-75
2023/05/16 11:03:23;;;;;;;;;;;;;;;39.11;8.69;97056.13;6279322;28;19920;-75
2023/05/16 11:06:27;;;;;;;;;;;;;;;39.81;8.34;97063.66;6297818;28;19924;-74
2023/05/16 11:09:31;;;;;;;;;;;;;;;39.45;8.48;97067.34;6296872;28;19924;-74
2023/05/16 11:12:51;;;;;;;;;;;;;;;37.49;9.46;97061.06;6279398;28;20462;-75
2023/05/16 11:16:15;;;;;;;;;;;;;;;35.40;10.82;97049.78;6297397;28;19920;-75
2023/05/16 11:19:39;;;;;;;;;;;;;;;34.21;11.57;97042.72;6296730;28;19920;-76
2023/05/16 11:22:42;;;;;;;;;;;;;;;34.88;11.42;97047.41;6297740;28;19920;-74
2023/05/16 11:25:55;;;;;;;;;;;;;;;35.69;10.74;97049.59;6297181;28;20018;-76
2023/05/16 11:28:58;;;;;;;;;;;;;;;36.37;10.34;97041.84;6278298;28;20391;-75
2023/05/16 11:32:03;;;;;;;;;;;;;;;36.29;10.60;97045.88;6297166;28;19920;-74
2023/05/16 11:35:09;;;;;;;;;;;;;;;35.59;10.73;97047.59;6296936;28;19920;-75
2023/05/16 11:38:17;;;;;;;;;;;;;;;33.91;11.81;97042.94;6296886;28;19942;-75
2023/05/16 11:41:21;;;;;;;;;;;;;;;32.14;12.80;97037.56;6296800;28;20297;-76
2023/05/16 11:44:22;;;;;;;;;;;;;;;30.79;13.48;97027.69;6295767;28;19920;-76
2023/05/16 11:47:26;;;;;;;;;;;;;;;30.64;13.45;97024.47;6296221;28;19927;-73
2023/05/16 11:50:30;;;;;;;;;;;;;;;31.38;13.24;97030.84;6296193;28;19926;-75
2023/05/16 11:53:37;;;;;;;;;;;;;;;31.95;12.72;97030.53;6296875;28;20292;-75
2023/05/16 11:56:38;;;;;;;;;;;;;;;31.22;13.07;97032.25;6296312;28;19920;-75
2023/05/16 11:59:45;;;;;;;;;;;;;;;29.94;13.92;97021.84;6296128;28;20378;-74
2023/05/16 12:02:48;;;;;;;;;;;;;;;29.31;14.50;97017.16;6295901;28;19920;-75
2023/05/16 12:05:53;;;;;;;;;;;;;;;29.82;14.06;97016.31;6296184;28;20005;-75
2023/05/16 12:09:02;;;;;;;;;;;;;;;30.69;13.58;97008.34;6296046;28;20019;-75
2023/05/16 12:12:04;;;;;;;;;;;;;;;31.40;12.89;97017.84;6295492;28;19916;-74
2023/05/16 12:15:08;;;;;;;;;;;;;;;31.59;13.27;97020.53;6293971;28;19920;-78
2023/05/16 12:18:12;;;;;;;;;;;;;;;31.53;12.96;97023.09;6277697;28;19920;-74
2023/05/16 12:21:19;;;;;;;;;;;;;;;31.50;13.13;97017.31;6295549;28;20011;-75
2023/05/16 12:24:20;;;;;;;;;;;;;;;31.47;13.21;97017.75;6294988;28;19920;-76
2023/05/16 12:27:22;;;;;;;;;;;;;;;31.54;13.48;97018.53;6294821;28;19920;-75
2023/05/16 12:30:26;;;;;;;;;;;;;;;31.89;13.38;97023.28;6294414;28;19920;-75
2023/05/16 12:33:35;;;;;;;;;;;;;;;32.14;13.08;97014.97;6295992;28;19912;-75
2023/05/16 12:36:44;;;;;;;;;;;;;;;31.44;13.33;97020.94;6295836;28;20022;-75
2023/05/16 12:39:46;;;;;;;;;;;;;;;30.42;13.98;97014.00;6294932;28;19920;-76
2023/05/16 12:42:52;;;;;;;;;;;;;;;29.92;14.20;97016.66;6295147;28;20299;-76
2023/05/16 12:45:56;;;;;;;;;;;;;;;29.92;14.31;97022.09;6294824;28;19970;-75
2023/05/16 12:49:05;;;;;;;;;;;;;;;29.79;14.47;97019.44;6295264;28;19929;-78
2023/05/16 12:52:16;;;;;;;;;;;;;;;29.43;14.34;97006.47;6277187;28;19920;-75
2023/05/16 12:55:17;;;;;;;;;;;;;;;29.20;14.88;97012.41;6293742;28;19921;-75
2023/05/16 12:58:21;;;;;;;;;;;;;;;28.99;15.07;97011.63;6294956;28;19920;-74
2023/05/16 13:01:25;;;;;;;;;;;;;;;28.61;15.35;97009.59;6295040;28;20026;-75
2023/05/16 13:04:30;;;;;;;;;;;;;;;28.36;15.46;97016.66;6294822;28;19921;-76
2023/05/16 13:07:43;;;;;;;;;;;;;;;28.27;15.56;97015.22;6294637;28;20335;-76
2023/05/16 13:10:49;;;;;;;;;;;;;;;28.31;15.11;97006.47;6277496;28;19920;-75
2023/05/16 13:13:55;;;;;;;;;;;;;;;28.23;15.43;97005.84;6294873;28;19924;-75
2023/05/16 13:16:59;;;;;;;;;;;;;;;27.99;15.92;97016.22;6293945;28;19930;-74
2023/05/16 13:20:08;;;;;;;;;;;;;;;27.84;15.76;97019.13;6294570;28;20301;-76
2023/05/16 13:23:09;;;;;;;;;;;;;;;27.56;16.15;97016.50;6294586;28;19921;-74
2023/05/16 13:26:13;;;;;;;;;;;;;;;27.39;16.04;97020.63;6293972;28;20007;-75
2023/05/16 13:29:19;;;;;;;;;;;;;;;27.24;16.40;97023.47;6294719;28;20293;-75
2023/05/16 13:32:21;;;;;;;;;;;;;;;27.20;16.40;97023.03;6293404;28;19920;-75
2023/05/16 13:35:25;;;;;;;;;;;;;;;27.12;16.42;97019.63;6294613;28;20386;-75
2023/05/16 13:38:47;;;;;;;;;;;;;;;27.05;16.43;97022.31;6293747;28;20013;-76
2023/05/16 13:42:08;;;;;;;;;;;;;;;27.02;16.55;97026.22;6297604;28;19928;-75
2023/05/16 13:45:15;;;;;;;;;;;;;;;26.79;16.59;97025.69;6298962;28;19966;-75
2023/05/16 13:48:21;;;;;;;;;;;;;;;26.53;16.96;97021.78;6298398;28;19925;-75
2023/05/16 13:51:22;;;;;;;;;;;;;;;26.29;17.59;97020.31;6299166;28;20078;-75
2023/05/16 13:54:25;;;;;;;;;;;;;;;26.14;17.20;97016.88;6298138;28;20006;-74
2023/05/16 13:57:26;;;;;;;;;;;;;;;25.88;17.38;97023.69;6298959;28;20024;-75
2023/05/16 14:00:30;;;;;;;;;;;;;;;25.66;17.35;97013.88;6299062;28;19920;-75
2023/05/16 14:03:48;;;;;;;;;;;;;;;25.58;17.65;97022.09;6298316;28;20389;-75
2023/05/16 14:06:55;;;;;;;;;;;;;;;25.50;17.58;97009.56;6299184;28;19920;-75
2023/05/16 14:09:58;;;;;;;;;;;;;;;25.39;17.58;97018.97;6298311;28;20018;-76
2023/05/16 14:12:59;;;;;;;;;;;;;;;25.26;17.98;97021.50;6298674;28;19921;-75
2023/05/16 14:16:07;;;;;;;;;;;;;;;25.04;18.09;97024.09;6298670;28;20006;-76
2023/05/16 14:19:11;;;;;;;;;;;;;;;25.00;17.91;97017.44;6298503;28;19920;-76
2023/05/16 14:22:12;;;;;;;;;;;;;;;25.01;18.03;97016.41;6298106;28;19920;-74
2023/05/16 14:25:13;;;;;;;;;;;;;;;25.00;18.04;97028.19;6297802;28;19920;-76
2023/05/16 14:28:16;;;;;;;;;;;;;;;24.91;18.06;97025.75;6298732;28;19928;-76
2023/05/16 14:31:20;;;;;;;;;;;;;;;24.72;18.39;97027.19;6298544;28;19920;-76
2023/05/16 14:34:23;;;;;;;;;;;;;;;24.53;18.38;97029.38;6297075;28;19920;-75
2023/05/16 14:37:24;;;;;;;;;;;;;;;24.32;18.41;97031.91;6297589;28;20312;-75
2023/05/16 14:40:26;;;;;;;;;;;;;;;24.10;18.53;97039.81;6297506;28;19947;-76
2023/05/16 14:43:32;;;;;;;;;;;;;;;23.88;18.62;97029.91;6298221;28;20363;-76
2023/05/16 14:46:38;;;;;;;;;;;;;;;23.70;18.80;97028.34;6298330;28;20305;-75
2023/05/16 14:49:43;;;;;;;;;;;;;;;23.60;19.17;97033.06;6297791;28;19928;-76
2023/05/16 14:52:44;;;;;;;;;;;;;;;23.53;18.72;97027.59;6296790;28;19943;-75
2023/05/16 14:55:45;;;;;;;;;;;;;;;23.46;18.90;97033.84;6297088;28;19931;-76
2023/05/16 14:58:49;;;;;;;;;;;;;;;23.40;19.31;97031.84;6297531;28;19925;-76
2023/05/16 15:01:50;;;;;;;;;;;;;;;23.35;19.31;97035.06;6296924;28;19920;-75
2023/05/16 15:04:55;;;;;;;;;;;;;;;23.31;19.17;97034.59;6296645;28;19916;-75
2023/05/16 15:07:56;;;;;;;;;;;;;;;23.27;19.57;97041.31;6296422;28;19927;-75
2023/05/16 15:11:02;;;;;;;;;;;;;;;23.20;19.84;97048.38;6297501;28;20309;-77
2023/05/16 15:14:03;;;;;;;;;;;;;;;22.97;20.13;97044.81;6296812;28;19916;-76
2023/05/16 15:17:09;;;;;;;;;;;;;;;22.71;20.43;97047.72;6296342;28;20217;-76
2023/05/16 15:20:14;;;;;;;;;;;;;;;22.41;20.63;97048.25;6296642;28;20373;-76
2023/05/16 15:23:17;;;;;;;;;;;;;;;22.14;20.86;97056.63;6296170;28;20232;-74
2023/05/16 15:26:21;;;;;;;;;;;;;;;21.86;21.17;97051.56;6296554;28;19944;-77
2023/05/16 15:29:24;;;;;;;;;;;;;;;21.61;21.17;97055.22;6296259;28;20416;-75
2023/05/16 15:32:25;;;;;;;;;;;;;;;21.42;21.63;97057.16;6296261;28;19927;-75
2023/05/16 15:35:26;;;;;;;;;;;;;;;21.26;21.91;97067.81;6278724;28;19962;-75
2023/05/16 15:38:29;;;;;;;;;;;;;;;21.05;21.74;97063.69;6294883;28;19922;-77
2023/05/16 15:41:33;;;;;;;;;;;;;;;20.87;22.17;97068.28;6296961;28;19920;-75
2023/05/16 15:44:37;;;;;;;;;;;;;;;20.66;22.32;97070.50;6295890;28;19921;-76
2023/05/16 15:47:38;;;;;;;;;;;;;;;20.42;22.38;97064.81;6295546;28;20340;-76
2023/05/16 15:50:42;;;;;;;;;;;;;;;20.22;23.02;97073.19;6296949;28;20317;-75
2023/05/16 15:53:48;;;;;;;;;;;;;;;20.09;22.96;97079.72;6296715;28;19920;-76
2023/05/16 15:56:52;;;;;;;;;;;;;;;19.90;23.26;97088.75;6296610;28;20395;-76
2023/05/16 15:59:58;;;;;;;;;;;;;;;19.72;23.00;97090.56;6296571;28;20390;-76
2023/05/16 16:02:59;;;;;;;;;;;;;;;19.57;23.54;97095.56;6295380;28;20405;-75
2023/05/16 16:06:03;;;;;;;;;;;;;;;19.44;23.40;97095.06;6296413;28;20313;-75
2023/05/16 16:09:04;;;;;;;;;;;;;;;19.35;23.71;97103.97;6295601;28;19928;-75